Domov               UVHVVR             MKGP            O straneh              
ZDRAVSTVENO VARSTVO RASTLIN
  MREŽA AGROMET. POSTAJ
 ► PROGNOSTIČNA OBVESTILA
AGROMETEOROLOŠKI PODATKI -
ARSO
OBVLADOVANJE TVEGANJ ZARADI
NEUGODNIH VREMENSKIH RAZMER
  ► NARAVNE NESREČE
  ► SUŠA/MOČA
  ► NAMAKANJE
  ► ŽLED (gozdarstvo)
KARTOGRAFSKI PRIKAZI
SPLETNE POVEZAVE
PROJEKTI IN PUBLIKACIJE

AGROMETEOROLOŠKA MREŽA: VREMENSKE POSTAJE IN FENOLOŠKA OPAZOVANJA

Pregled podatkov za lokacijo Tacen, meteorološka postaja 27389

Pregled senzorjev na lokaciji

ID Ime Zadnja
vrednost
Datum
zadnje
spremembe
Tip
senzorja
2222 Padavine (mm) 0 mm 19.7.2018 22:00 Generic 0.2 mm
2225 Relativna vlaga 2 m (% RH) 78,53 % RH 19.7.2018 22:00 Generic 0 - 100 %
2226 Temperatura 2 m (°C) 21,39 °C 19.7.2018 22:00 Generic -40 - +60 °C
4267 Smer vetra (°) 30,95 ° 19.7.2018 22:00 Generic 0 - 360
4266 Hitrost vetra (km/h) 0,39 km/h 19.7.2018 22:00 Generic 200 km/h

Pregled podatkov zadnjih 24 ur

Zap.
št.
Datum in čas Tacen
Padavine Relativna
vlaga
2
m
Temperatura
2
m
Smer
vetra
Hitrost
vetra
1 19.7.2018 23:30
2 19.7.2018 23:00
3 19.7.2018 22:30
4 19.7.2018 22:00
5 19.7.2018 21:30
6 19.7.2018 21:00 0 78,5 21,4 30,9 0,4
7 19.7.2018 20:30 0 82,1 21,6 28,7 0,4
8 19.7.2018 20:00 0 78,4 22,2 25,3 0,5
9 19.7.2018 19:30 0 71,1 23,9 26,2 0,6
10 19.7.2018 19:00 0 57,6 27,4 32,9 0,6
11 19.7.2018 18:30 0 42,6 30,9 11,3 0,8
12 19.7.2018 18:00 0 37,7 31,4 13,5 1,2
13 19.7.2018 17:30 0 35,8 31,8 17,9 2,6
14 19.7.2018 17:00 0 34,4 32,4 16,6 2,7
15 19.7.2018 16:30 0 33,9 32,6 22,1 2,4
16 19.7.2018 16:00 0 32,4 33,1 21,4 2,3
17 19.7.2018 15:30 0 31 33,3 50,9 1,2
18 19.7.2018 15:00 0 29,7 33,1 20,1 2,5
19 19.7.2018 14:30 0 29,4 33,2 29,9 1,6
20 19.7.2018 14:00 0 32,5 32,7 41,1 2,8
21 19.7.2018 13:30 0 32,7 33,1 24,9 1,3
22 19.7.2018 13:00 0 33,8 32,1 71,7 1,1
23 19.7.2018 12:30 0 33,4 31,9 91,8 1,3
24 19.7.2018 12:00 0 40,4 31 74,9 1,1
25 19.7.2018 11:30 0 46,5 29,8 65,7 1
26 19.7.2018 11:00 0 53,9 28,7 76 1,1
27 19.7.2018 10:30 0 55,7 28,2 86,5 0,7
28 19.7.2018 10:00 0 58,2 27,2 12,6 0,6
29 19.7.2018 09:30 0 61,1 25,8 12,7 0,6
30 19.7.2018 09:00 0 66,7 24,4 13,3 0,6
31 19.7.2018 08:30 0 70,9 22,8 12 0,6
32 19.7.2018 08:00 0 83,9 20,1 12 0,4
33 19.7.2018 07:30 0 98,8 16,2 10,5 0,2
34 19.7.2018 07:00 0 99,9 14,8 15,2 0,2
35 19.7.2018 06:30 0 99,9 14,2 19,1 0,2
36 19.7.2018 06:00 0 99,9 13,5 16,9 0,2
37 19.7.2018 05:30 0 99,9 13 14,7 0,2
38 19.7.2018 05:00 0 99,9 12,7 15,5 0,2
39 19.7.2018 04:30 0 99,9 12,8 15,2 0,2
40 19.7.2018 04:00 0 99,9 13,1 6,7 0,2
41 19.7.2018 03:30 0 99,9 13,4 25,8 0,2
42 19.7.2018 03:00 0 99,9 13,6 30 0,2
43 19.7.2018 02:30 0 99,9 13,8 8,7 0,2
44 19.7.2018 02:00 0 99,9 14,2 9,1 0,2
45 19.7.2018 01:30 0 99,8 14,5 12,7 0,2
46 19.7.2018 01:00 0 99,2 14,8 20 0,2
47 19.7.2018 00:30 0 98,7 15,2 11,3 0,3
48 19.7.2018 00:00 0 97,8 15,6 8,8 0,2
© 2011 Ministrstvo za kmetijstvo, gozdarstvo in prehrano. Vse pravice pridržane.